sensor_id;sensor_type;location;lat;lon;timestamp;pressure;altitude;pressure_sealevel;temperature;humidity
49342;BME280;35210;41.606;-87.602;2023-03-14T00:01:22;100195.50;;;1.96;55.58
49342;BME280;35210;41.606;-87.602;2023-03-14T00:03:50;100193.88;;;1.92;56.67
49342;BME280;35210;41.606;-87.602;2023-03-14T00:06:23;100194.59;;;1.97;55.79
49342;BME280;35210;41.606;-87.602;2023-03-14T00:08:51;100192.75;;;2.01;55.66
49342;BME280;35210;41.606;-87.602;2023-03-14T00:11:21;100200.44;;;2.06;55.66
49342;BME280;35210;41.606;-87.602;2023-03-14T00:13:50;100192.00;;;1.97;54.76
49342;BME280;35210;41.606;-87.602;2023-03-14T00:16:20;100195.31;;;2.03;55.42
49342;BME280;35210;41.606;-87.602;2023-03-14T00:18:49;100198.56;;;2.11;55.03
49342;BME280;35210;41.606;-87.602;2023-03-14T00:21:23;100203.94;;;2.05;55.18
49342;BME280;35210;41.606;-87.602;2023-03-14T00:23:55;100206.50;;;2.06;55.74
49342;BME280;35210;41.606;-87.602;2023-03-14T00:26:24;100210.94;;;2.03;56.10
49342;BME280;35210;41.606;-87.602;2023-03-14T00:28:54;100221.47;;;2.00;57.29
49342;BME280;35210;41.606;-87.602;2023-03-14T00:31:23;100222.28;;;2.02;58.02
49342;BME280;35210;41.606;-87.602;2023-03-14T00:33:52;100225.72;;;2.02;58.48
49342;BME280;35210;41.606;-87.602;2023-03-14T00:36:23;100233.75;;;1.94;60.49
49342;BME280;35210;41.606;-87.602;2023-03-14T00:38:52;100231.13;;;1.96;60.82
49342;BME280;35210;41.606;-87.602;2023-03-14T00:41:23;100238.88;;;1.97;61.36
49342;BME280;35210;41.606;-87.602;2023-03-14T00:43:53;100234.53;;;1.98;62.31
49342;BME280;35210;41.606;-87.602;2023-03-14T00:46:25;100244.78;;;2.04;63.15
49342;BME280;35210;41.606;-87.602;2023-03-14T00:48:55;100243.81;;;2.07;62.72
49342;BME280;35210;41.606;-87.602;2023-03-14T00:51:25;100237.94;;;2.00;62.67
49342;BME280;35210;41.606;-87.602;2023-03-14T00:53:53;100242.47;;;1.93;61.59
49342;BME280;35210;41.606;-87.602;2023-03-14T00:56:22;100249.38;;;1.94;60.94
49342;BME280;35210;41.606;-87.602;2023-03-14T00:58:54;100251.53;;;1.80;60.73
49342;BME280;35210;41.606;-87.602;2023-03-14T01:01:23;100259.16;;;1.86;60.87
49342;BME280;35210;41.606;-87.602;2023-03-14T01:03:52;100257.56;;;1.82;58.15
49342;BME280;35210;41.606;-87.602;2023-03-14T01:06:24;100257.56;;;1.82;58.00
49342;BME280;35210;41.606;-87.602;2023-03-14T01:08:53;100262.03;;;1.77;57.83
49342;BME280;35210;41.606;-87.602;2023-03-14T01:11:24;100258.06;;;1.64;54.82
49342;BME280;35210;41.606;-87.602;2023-03-14T01:13:52;100268.59;;;1.59;53.68
49342;BME280;35210;41.606;-87.602;2023-03-14T01:16:27;100256.63;;;1.52;53.48
49342;BME280;35210;41.606;-87.602;2023-03-14T01:18:57;100261.00;;;1.52;53.20
49342;BME280;35210;41.606;-87.602;2023-03-14T01:21:29;100258.34;;;1.53;52.96
49342;BME280;35210;41.606;-87.602;2023-03-14T01:23:58;100255.78;;;1.52;52.85
49342;BME280;35210;41.606;-87.602;2023-03-14T01:26:29;100264.69;;;1.45;52.62
49342;BME280;35210;41.606;-87.602;2023-03-14T01:28:58;100260.13;;;1.51;52.68
49342;BME280;35210;41.606;-87.602;2023-03-14T01:31:27;100274.19;;;1.46;52.60
49342;BME280;35210;41.606;-87.602;2023-03-14T01:33:56;100269.16;;;1.40;53.18
49342;BME280;35210;41.606;-87.602;2023-03-14T01:36:24;100266.56;;;1.40;53.92
49342;BME280;35210;41.606;-87.602;2023-03-14T01:38:54;100264.75;;;1.42;54.01
49342;BME280;35210;41.606;-87.602;2023-03-14T01:41:25;100267.22;;;1.48;53.63
49342;BME280;35210;41.606;-87.602;2023-03-14T01:43:58;100273.97;;;1.53;53.45
49342;BME280;35210;41.606;-87.602;2023-03-14T01:46:32;100269.53;;;1.57;53.81
49342;BME280;35210;41.606;-87.602;2023-03-14T01:49:15;100278.97;;;1.61;53.92
49342;BME280;35210;41.606;-87.602;2023-03-14T01:51:51;100277.34;;;1.57;54.08
49342;BME280;35210;41.606;-87.602;2023-03-14T01:54:32;100277.34;;;1.57;53.55
49342;BME280;35210;41.606;-87.602;2023-03-14T01:57:08;100278.75;;;1.69;53.58
49342;BME280;35210;41.606;-87.602;2023-03-14T01:59:40;100275.25;;;1.70;53.45
49342;BME280;35210;41.606;-87.602;2023-03-14T02:02:13;100278.81;;;1.67;54.78
49342;BME280;35210;41.606;-87.602;2023-03-14T02:04:45;100276.19;;;1.67;54.58
49342;BME280;35210;41.606;-87.602;2023-03-14T02:07:17;100284.78;;;1.71;54.12
49342;BME280;35210;41.606;-87.602;2023-03-14T02:09:50;100283.81;;;1.75;54.78
49342;BME280;35210;41.606;-87.602;2023-03-14T02:12:24;100282.00;;;1.77;55.25
49342;BME280;35210;41.606;-87.602;2023-03-14T02:14:53;100278.25;;;1.87;54.30
49342;BME280;35210;41.606;-87.602;2023-03-14T02:17:23;100284.75;;;1.72;55.74
49342;BME280;35210;41.606;-87.602;2023-03-14T02:20:08;100286.63;;;1.67;56.44
49342;BME280;35210;41.606;-87.602;2023-03-14T02:22:39;100292.63;;;1.69;56.56
49342;BME280;35210;41.606;-87.602;2023-03-14T02:25:14;100289.41;;;1.59;57.45
49342;BME280;35210;41.606;-87.602;2023-03-14T02:27:47;100284.25;;;1.58;57.26
49342;BME280;35210;41.606;-87.602;2023-03-14T02:30:17;100300.53;;;1.66;57.23
49342;BME280;35210;41.606;-87.602;2023-03-14T02:32:51;100300.59;;;1.63;57.64
49342;BME280;35210;41.606;-87.602;2023-03-14T02:35:23;100297.03;;;1.67;58.27
49342;BME280;35210;41.606;-87.602;2023-03-14T02:37:56;100299.47;;;1.73;58.51
49342;BME280;35210;41.606;-87.602;2023-03-14T02:40:26;100303.84;;;1.71;58.16
49342;BME280;35210;41.606;-87.602;2023-03-14T02:42:56;100306.25;;;1.79;58.34
49342;BME280;35210;41.606;-87.602;2023-03-14T02:45:42;100300.13;;;1.81;58.26
49342;BME280;35210;41.606;-87.602;2023-03-14T02:48:15;100305.22;;;1.84;58.52
49342;BME280;35210;41.606;-87.602;2023-03-14T02:50:46;100303.38;;;1.89;58.87
49342;BME280;35210;41.606;-87.602;2023-03-14T02:53:23;100299.69;;;1.96;58.11
49342;BME280;35210;41.606;-87.602;2023-03-14T02:55:52;100311.09;;;1.92;57.51
49342;BME280;35210;41.606;-87.602;2023-03-14T02:58:23;100310.97;;;1.97;58.45
49342;BME280;35210;41.606;-87.602;2023-03-14T03:00:52;100300.31;;;2.05;57.32
49342;BME280;35210;41.606;-87.602;2023-03-14T03:03:21;100316.16;;;1.97;57.39
49342;BME280;35210;41.606;-87.602;2023-03-14T03:05:50;100304.03;;;1.96;58.01
49342;BME280;35210;41.606;-87.602;2023-03-14T03:08:19;100297.25;;;1.90;58.28
49342;BME280;35210;41.606;-87.602;2023-03-14T03:10:49;100308.28;;;1.68;59.16
49342;BME280;35210;41.606;-87.602;2023-03-14T03:13:18;100309.28;;;1.63;59.71
49342;BME280;35210;41.606;-87.602;2023-03-14T03:15:49;100309.28;;;1.63;60.19
49342;BME280;35210;41.606;-87.602;2023-03-14T03:18:18;100303.13;;;1.66;60.15
49342;BME280;35210;41.606;-87.602;2023-03-14T03:20:46;100310.84;;;1.69;60.64
49342;BME280;35210;41.606;-87.602;2023-03-14T03:23:15;100321.19;;;1.72;60.46
49342;BME280;35210;41.606;-87.602;2023-03-14T03:25:48;100315.22;;;1.69;60.59
49342;BME280;35210;41.606;-87.602;2023-03-14T03:28:17;100320.34;;;1.72;60.60
49342;BME280;35210;41.606;-87.602;2023-03-14T03:30:45;100325.34;;;1.79;60.68
49342;BME280;35210;41.606;-87.602;2023-03-14T03:33:16;100320.00;;;1.84;60.32
49342;BME280;35210;41.606;-87.602;2023-03-14T03:35:49;100324.53;;;1.77;60.00
49342;BME280;35210;41.606;-87.602;2023-03-14T03:38:18;100321.03;;;1.78;60.65
49342;BME280;35210;41.606;-87.602;2023-03-14T03:40:49;100320.69;;;1.90;59.92
49342;BME280;35210;41.606;-87.602;2023-03-14T03:43:17;100320.06;;;1.82;60.41
49342;BME280;35210;41.606;-87.602;2023-03-14T03:45:50;100333.16;;;1.79;60.79
49342;BME280;35210;41.606;-87.602;2023-03-14T03:48:20;100339.00;;;1.87;61.15
49342;BME280;35210;41.606;-87.602;2023-03-14T03:50:50;100336.44;;;1.86;61.08
49342;BME280;35210;41.606;-87.602;2023-03-14T03:53:18;100342.59;;;1.83;61.32
49342;BME280;35210;41.606;-87.602;2023-03-14T03:55:50;100340.00;;;1.83;61.81
49342;BME280;35210;41.606;-87.602;2023-03-14T03:58:18;100339.16;;;1.81;62.17
49342;BME280;35210;41.606;-87.602;2023-03-14T04:00:48;100336.41;;;1.87;62.46
49342;BME280;35210;41.606;-87.602;2023-03-14T04:03:20;100339.09;;;1.84;61.76
49342;BME280;35210;41.606;-87.602;2023-03-14T04:05:58;100336.56;;;1.81;62.32
49342;BME280;35210;41.606;-87.602;2023-03-14T04:08:28;100333.84;;;1.86;62.55
49342;BME280;35210;41.606;-87.602;2023-03-14T04:10:58;100340.91;;;1.81;61.82
49342;BME280;35210;41.606;-87.602;2023-03-14T04:13:29;100347.22;;;1.72;62.18
49342;BME280;35210;41.606;-87.602;2023-03-14T04:15:58;100348.09;;;1.73;61.75
49342;BME280;35210;41.606;-87.602;2023-03-14T04:18:30;100352.44;;;1.72;61.86
49342;BME280;35210;41.606;-87.602;2023-03-14T04:21:02;100349.84;;;1.72;62.30
49342;BME280;35210;41.606;-87.602;2023-03-14T04:23:32;100341.25;;;1.69;60.84
49342;BME280;35210;41.606;-87.602;2023-03-14T04:26:02;100331.69;;;1.69;61.27
49342;BME280;35210;41.606;-87.602;2023-03-14T04:28:34;100346.56;;;1.64;59.96
49342;BME280;35210;41.606;-87.602;2023-03-14T04:31:07;100345.84;;;1.59;60.01
49342;BME280;35210;41.606;-87.602;2023-03-14T04:33:38;100347.63;;;1.57;60.12
49342;BME280;35210;41.606;-87.602;2023-03-14T04:36:08;100341.13;;;1.41;60.53
49342;BME280;35210;41.606;-87.602;2023-03-14T04:38:37;100351.53;;;1.41;61.23
49342;BME280;35210;41.606;-87.602;2023-03-14T04:41:06;100349.94;;;1.35;61.63
49342;BME280;35210;41.606;-87.602;2023-03-14T04:43:34;100352.59;;;1.34;61.68
49342;BME280;35210;41.606;-87.602;2023-03-14T04:46:02;100351.75;;;1.31;61.77
49342;BME280;35210;41.606;-87.602;2023-03-14T04:48:31;100342.94;;;1.37;61.44
49342;BME280;35210;41.606;-87.602;2023-03-14T04:51:00;100352.72;;;1.27;61.35
49342;BME280;35210;41.606;-87.602;2023-03-14T04:53:28;100344.00;;;1.30;61.04
49342;BME280;35210;41.606;-87.602;2023-03-14T04:55:57;100346.59;;;1.30;60.97
49342;BME280;35210;41.606;-87.602;2023-03-14T04:58:25;100346.63;;;1.28;60.60
49342;BME280;35210;41.606;-87.602;2023-03-14T05:00:53;100348.50;;;1.23;61.11
49342;BME280;35210;41.606;-87.602;2023-03-14T05:03:21;100350.34;;;1.18;61.88
49342;BME280;35210;41.606;-87.602;2023-03-14T05:05:49;100353.09;;;1.12;61.46
49342;BME280;35210;41.606;-87.602;2023-03-14T05:08:19;100345.22;;;1.15;61.24
49342;BME280;35210;41.606;-87.602;2023-03-14T05:10:52;100354.03;;;1.10;61.17
49342;BME280;35210;41.606;-87.602;2023-03-14T05:13:21;100345.41;;;1.08;61.84
49342;BME280;35210;41.606;-87.602;2023-03-14T05:15:49;100351.34;;;1.13;61.43
49342;BME280;35210;41.606;-87.602;2023-03-14T05:18:18;100346.25;;;1.08;62.09
49342;BME280;35210;41.606;-87.602;2023-03-14T05:20:46;100352.31;;;1.09;61.50
49342;BME280;35210;41.606;-87.602;2023-03-14T05:23:15;100348.78;;;1.11;61.39
49342;BME280;35210;41.606;-87.602;2023-03-14T05:25:45;100348.06;;;1.05;61.70
49342;BME280;35210;41.606;-87.602;2023-03-14T05:28:13;100348.72;;;1.14;61.20
49342;BME280;35210;41.606;-87.602;2023-03-14T05:30:41;100352.44;;;1.04;61.43
49342;BME280;35210;41.606;-87.602;2023-03-14T05:33:10;100360.19;;;1.06;60.57
49342;BME280;35210;41.606;-87.602;2023-03-14T05:35:40;100351.56;;;1.04;61.53
49342;BME280;35210;41.606;-87.602;2023-03-14T05:38:09;100349.84;;;1.03;61.98
49342;BME280;35210;41.606;-87.602;2023-03-14T05:40:38;100348.88;;;1.08;61.78
49342;BME280;35210;41.606;-87.602;2023-03-14T05:43:09;100356.50;;;1.14;61.68
49342;BME280;35210;41.606;-87.602;2023-03-14T05:45:39;100343.66;;;1.08;61.25
49342;BME280;35210;41.606;-87.602;2023-03-14T05:48:08;100348.25;;;0.97;60.83
49342;BME280;35210;41.606;-87.602;2023-03-14T05:50:38;100349.06;;;0.99;61.74
49342;BME280;35210;41.606;-87.602;2023-03-14T05:53:07;100359.47;;;0.99;61.03
49342;BME280;35210;41.606;-87.602;2023-03-14T05:55:36;100361.25;;;0.97;61.51
49342;BME280;35210;41.606;-87.602;2023-03-14T05:58:04;100359.47;;;0.99;61.71
49342;BME280;35210;41.606;-87.602;2023-03-14T06:00:34;100361.03;;;1.06;61.64
49342;BME280;35210;41.606;-87.602;2023-03-14T06:03:06;100368.03;;;1.04;61.10
49342;BME280;35210;41.606;-87.602;2023-03-14T06:05:35;100362.91;;;1.01;61.40
49342;BME280;35210;41.606;-87.602;2023-03-14T06:08:04;100359.25;;;1.08;61.77
49342;BME280;35210;41.606;-87.602;2023-03-14T06:10:35;100362.53;;;1.16;60.73
49342;BME280;35210;41.606;-87.602;2023-03-14T06:13:03;100365.19;;;1.15;60.92
49342;BME280;35210;41.606;-87.602;2023-03-14T06:15:31;100362.72;;;1.09;61.12
49342;BME280;35210;41.606;-87.602;2023-03-14T06:18:04;100361.91;;;1.07;60.76
49342;BME280;35210;41.606;-87.602;2023-03-14T06:20:32;100366.31;;;1.03;61.83
49342;BME280;35210;41.606;-87.602;2023-03-14T06:23:01;100363.66;;;1.06;60.96
49342;BME280;35210;41.606;-87.602;2023-03-14T06:25:29;100360.09;;;1.10;61.14
49342;BME280;35210;41.606;-87.602;2023-03-14T06:27:57;100369.63;;;1.10;60.94
49342;BME280;35210;41.606;-87.602;2023-03-14T06:30:25;100363.72;;;1.03;61.08
49342;BME280;35210;41.606;-87.602;2023-03-14T06:32:54;100368.03;;;1.04;61.56
49342;BME280;35210;41.606;-87.602;2023-03-14T06:35:25;100373.91;;;1.12;61.06
49342;BME280;35210;41.606;-87.602;2023-03-14T06:37:54;100362.91;;;1.01;60.80
49342;BME280;35210;41.606;-87.602;2023-03-14T06:40:22;100376.91;;;0.95;60.68
49342;BME280;35210;41.606;-87.602;2023-03-14T06:42:51;100380.50;;;0.90;61.27
49342;BME280;35210;41.606;-87.602;2023-03-14T06:45:20;100383.06;;;0.91;60.83
49342;BME280;35210;41.606;-87.602;2023-03-14T06:47:48;100374.47;;;0.88;60.89
49342;BME280;35210;41.606;-87.602;2023-03-14T06:50:18;100383.97;;;0.89;61.28
49342;BME280;35210;41.606;-87.602;2023-03-14T06:52:49;100386.50;;;0.92;60.84
49342;BME280;35210;41.606;-87.602;2023-03-14T06:55:17;100383.13;;;0.88;60.78
49342;BME280;35210;41.606;-87.602;2023-03-14T06:57:47;100384.03;;;0.86;60.50
49342;BME280;35210;41.606;-87.602;2023-03-14T07:00:15;100381.50;;;0.83;61.12
49342;BME280;35210;41.606;-87.602;2023-03-14T07:02:43;100389.31;;;0.83;61.02
49342;BME280;35210;41.606;-87.602;2023-03-14T07:05:12;100394.56;;;0.80;61.08
49342;BME280;35210;41.606;-87.602;2023-03-14T07:07:45;100392.00;;;0.78;61.56
49342;BME280;35210;41.606;-87.602;2023-03-14T07:10:14;100388.47;;;0.82;61.28
49342;BME280;35210;41.606;-87.602;2023-03-14T07:12:44;100396.22;;;0.84;61.13
49342;BME280;35210;41.606;-87.602;2023-03-14T07:15:15;100389.25;;;0.86;60.90
49342;BME280;35210;41.606;-87.602;2023-03-14T07:17:44;100402.31;;;0.83;59.93
49342;BME280;35210;41.606;-87.602;2023-03-14T07:20:14;100396.31;;;0.79;60.63
49342;BME280;35210;41.606;-87.602;2023-03-14T07:22:43;100398.00;;;0.82;61.12
49342;BME280;35210;41.606;-87.602;2023-03-14T07:25:17;100402.31;;;0.83;61.08
49342;BME280;35210;41.606;-87.602;2023-03-14T07:27:46;100403.13;;;0.85;60.60
49342;BME280;35210;41.606;-87.602;2023-03-14T07:30:16;100401.44;;;0.84;60.85
49342;BME280;35210;41.606;-87.602;2023-03-14T07:32:44;100398.91;;;0.81;60.17
49342;BME280;35210;41.606;-87.602;2023-03-14T07:35:12;100400.66;;;0.79;60.34
49342;BME280;35210;41.606;-87.602;2023-03-14T07:37:41;100404.16;;;0.78;60.49
49342;BME280;35210;41.606;-87.602;2023-03-14T07:40:10;100401.56;;;0.78;60.16
49342;BME280;35210;41.606;-87.602;2023-03-14T07:42:43;100408.66;;;0.71;59.91
49342;BME280;35210;41.606;-87.602;2023-03-14T07:45:14;100399.16;;;0.70;60.26
49342;BME280;35210;41.606;-87.602;2023-03-14T07:47:43;100408.69;;;0.70;60.10
49342;BME280;35210;41.606;-87.602;2023-03-14T07:50:14;100397.53;;;0.64;60.45
49342;BME280;35210;41.606;-87.602;2023-03-14T07:52:42;100399.22;;;0.67;59.49
49342;BME280;35210;41.606;-87.602;2023-03-14T07:55:11;100404.28;;;0.73;59.58
49342;BME280;35210;41.606;-87.602;2023-03-14T07:57:39;100402.69;;;0.68;59.09
49342;BME280;35210;41.606;-87.602;2023-03-14T08:00:10;100392.44;;;0.60;59.80
49342;BME280;35210;41.606;-87.602;2023-03-14T08:02:40;100398.59;;;0.56;60.03
49342;BME280;35210;41.606;-87.602;2023-03-14T08:05:08;100398.38;;;0.67;60.03
49342;BME280;35210;41.606;-87.602;2023-03-14T08:07:37;100397.63;;;0.60;59.74
49342;BME280;35210;41.606;-87.602;2023-03-14T08:10:06;100398.44;;;0.63;59.68
49342;BME280;35210;41.606;-87.602;2023-03-14T08:12:36;100397.72;;;0.55;59.15
49342;BME280;35210;41.606;-87.602;2023-03-14T08:15:05;100389.03;;;0.56;59.84
49342;BME280;35210;41.606;-87.602;2023-03-14T08:17:36;100390.75;;;0.57;59.62
49342;BME280;35210;41.606;-87.602;2023-03-14T08:20:06;100390.06;;;0.49;59.50
49342;BME280;35210;41.606;-87.602;2023-03-14T08:22:35;100398.81;;;0.45;59.76
49342;BME280;35210;41.606;-87.602;2023-03-14T08:25:05;100396.97;;;0.50;60.13
49342;BME280;35210;41.606;-87.602;2023-03-14T08:27:33;100393.50;;;0.50;59.48
49342;BME280;35210;41.606;-87.602;2023-03-14T08:30:05;100397.09;;;0.44;59.49
49342;BME280;35210;41.606;-87.602;2023-03-14T08:32:35;100386.69;;;0.44;59.82
49342;BME280;35210;41.606;-87.602;2023-03-14T08:35:04;100398.03;;;0.40;59.84
49342;BME280;35210;41.606;-87.602;2023-03-14T08:37:33;100406.69;;;0.41;59.68
49342;BME280;35210;41.606;-87.602;2023-03-14T08:40:01;100407.59;;;0.38;59.45
49342;BME280;35210;41.606;-87.602;2023-03-14T08:42:32;100405.16;;;0.30;59.61
49342;BME280;35210;41.606;-87.602;2023-03-14T08:45:00;100414.75;;;0.27;59.94
49342;BME280;35210;41.606;-87.602;2023-03-14T08:47:29;100421.66;;;0.28;60.07
49342;BME280;35210;41.606;-87.602;2023-03-14T08:50:00;100407.03;;;0.24;60.06
49342;BME280;35210;41.606;-87.602;2023-03-14T08:52:28;100414.00;;;0.22;60.21
49342;BME280;35210;41.606;-87.602;2023-03-14T08:54:58;100415.75;;;0.20;60.32
49342;BME280;35210;41.606;-87.602;2023-03-14T08:57:26;100421.78;;;0.22;61.00
49342;BME280;35210;41.606;-87.602;2023-03-14T08:59:55;100417.41;;;0.24;61.02
49342;BME280;35210;41.606;-87.602;2023-03-14T09:02:24;100428.50;;;0.32;60.88
49342;BME280;35210;41.606;-87.602;2023-03-14T09:04:53;100425.94;;;0.30;60.56
49342;BME280;35210;41.606;-87.602;2023-03-14T09:07:23;100433.78;;;0.29;60.38
49342;BME280;35210;41.606;-87.602;2023-03-14T09:09:51;100425.94;;;0.30;60.48
49342;BME280;35210;41.606;-87.602;2023-03-14T09:12:20;100437.13;;;0.34;60.05
49342;BME280;35210;41.606;-87.602;2023-03-14T09:14:48;100441.50;;;0.32;60.54
49342;BME280;35210;41.606;-87.602;2023-03-14T09:17:16;100441.50;;;0.32;60.56
49342;BME280;35210;41.606;-87.602;2023-03-14T09:19:44;100447.56;;;0.32;59.96
49342;BME280;35210;41.606;-87.602;2023-03-14T09:22:13;100446.69;;;0.32;59.86
49342;BME280;35210;41.606;-87.602;2023-03-14T09:24:42;100454.53;;;0.29;59.79
49342;BME280;35210;41.606;-87.602;2023-03-14T09:27:11;100460.47;;;0.37;59.56
49342;BME280;35210;41.606;-87.602;2023-03-14T09:29:39;100467.41;;;0.37;59.93
49342;BME280;35210;41.606;-87.602;2023-03-14T09:32:07;100457.13;;;0.30;59.71
49342;BME280;35210;41.606;-87.602;2023-03-14T09:34:35;100457.19;;;0.26;60.23
49342;BME280;35210;41.606;-87.602;2023-03-14T09:37:03;100456.38;;;0.24;59.59
49342;BME280;35210;41.606;-87.602;2023-03-14T09:39:31;100460.75;;;0.22;60.20
49342;BME280;35210;41.606;-87.602;2023-03-14T09:42:02;100464.44;;;0.09;60.66
49342;BME280;35210;41.606;-87.602;2023-03-14T09:44:37;100466.25;;;0.04;60.30
49342;BME280;35210;41.606;-87.602;2023-03-14T09:47:07;100469.78;;;0.01;60.38
49342;BME280;35210;41.606;-87.602;2023-03-14T09:49:40;100476.81;;;-0.04;60.39
49342;BME280;35210;41.606;-87.602;2023-03-14T09:52:14;100482.06;;;-0.07;61.23
49342;BME280;35210;41.606;-87.602;2023-03-14T09:54:45;100483.81;;;-0.09;61.38
49342;BME280;35210;41.606;-87.602;2023-03-14T09:57:23;100478.56;;;-0.05;61.65
49342;BME280;35210;41.606;-87.602;2023-03-14T09:59:54;100481.91;;;0.00;61.48
49342;BME280;35210;41.606;-87.602;2023-03-14T10:02:26;100489.78;;;-0.03;61.24
49342;BME280;35210;41.606;-87.602;2023-03-14T10:04:56;100489.78;;;-0.03;60.64
49342;BME280;35210;41.606;-87.602;2023-03-14T10:07:28;100485.53;;;-0.08;61.28
49342;BME280;35210;41.606;-87.602;2023-03-14T10:09:57;100486.41;;;-0.09;61.04
49342;BME280;35210;41.606;-87.602;2023-03-14T10:12:33;100493.41;;;-0.13;61.66
49342;BME280;35210;41.606;-87.602;2023-03-14T10:15:03;100494.31;;;-0.15;61.57
49342;BME280;35210;41.606;-87.602;2023-03-14T10:17:39;100502.06;;;-0.14;61.69
49342;BME280;35210;41.606;-87.602;2023-03-14T10:20:27;100499.41;;;-0.09;62.16
49342;BME280;35210;41.606;-87.602;2023-03-14T10:22:58;100509.78;;;-0.09;61.62
49342;BME280;35210;41.606;-87.602;2023-03-14T10:25:28;100506.22;;;-0.04;61.63
49342;BME280;35210;41.606;-87.602;2023-03-14T10:28:23;100519.25;;;-0.05;61.63
49342;BME280;35210;41.606;-87.602;2023-03-14T10:30:51;100521.91;;;-0.10;61.84
49342;BME280;35210;41.606;-87.602;2023-03-14T10:33:21;100520.16;;;-0.09;61.99
49342;BME280;35210;41.606;-87.602;2023-03-14T10:35:54;100508.94;;;-0.10;61.74
49342;BME280;35210;41.606;-87.602;2023-03-14T10:38:24;100520.16;;;-0.09;61.04
49342;BME280;35210;41.606;-87.602;2023-03-14T10:40:54;100529.66;;;-0.07;61.39
49342;BME280;35210;41.606;-87.602;2023-03-14T10:43:31;100531.44;;;-0.10;61.24
49342;BME280;35210;41.606;-87.602;2023-03-14T10:46:06;100531.59;;;-0.19;61.75
49342;BME280;35210;41.606;-87.602;2023-03-14T10:48:37;100541.13;;;-0.21;61.91
49342;BME280;35210;41.606;-87.602;2023-03-14T10:51:09;100548.88;;;-0.18;61.75
49342;BME280;35210;41.606;-87.602;2023-03-14T10:53:43;100553.19;;;-0.17;61.43
49342;BME280;35210;41.606;-87.602;2023-03-14T10:56:16;100548.16;;;-0.28;61.56
49342;BME280;35210;41.606;-87.602;2023-03-14T10:58:48;100560.28;;;-0.30;61.69
49342;BME280;35210;41.606;-87.602;2023-03-14T11:01:39;100556.06;;;-0.37;61.51
49342;BME280;35210;41.606;-87.602;2023-03-14T11:04:16;100560.38;;;-0.35;61.11
49342;BME280;35210;41.606;-87.602;2023-03-14T11:06:55;100570.81;;;-0.41;61.57
49342;BME280;35210;41.606;-87.602;2023-03-14T11:09:30;100574.31;;;-0.42;62.28
49342;BME280;35210;41.606;-87.602;2023-03-14T11:12:04;100575.25;;;-0.47;62.24
49342;BME280;35210;41.606;-87.602;2023-03-14T11:14:46;100577.94;;;-0.53;61.93
49342;BME280;35210;41.606;-87.602;2023-03-14T11:17:22;100581.41;;;-0.56;62.60
49342;BME280;35210;41.606;-87.602;2023-03-14T11:20:22;100580.59;;;-0.59;62.72
49342;BME280;35210;41.606;-87.602;2023-03-14T11:22:59;100588.44;;;-0.64;62.96
49342;BME280;35210;41.606;-87.602;2023-03-14T11:25:33;100589.31;;;-0.63;63.00
49342;BME280;35210;41.606;-87.602;2023-03-14T11:28:14;100598.78;;;-0.62;63.05
49342;BME280;35210;41.606;-87.602;2023-03-14T11:30:51;100595.31;;;-0.60;62.43
49342;BME280;35210;41.606;-87.602;2023-03-14T11:33:23;100589.34;;;-0.67;62.38
49342;BME280;35210;41.606;-87.602;2023-03-14T11:35:58;100597.13;;;-0.68;62.37
49342;BME280;35210;41.606;-87.602;2023-03-14T11:38:32;100587.59;;;-0.64;62.08
49342;BME280;35210;41.606;-87.602;2023-03-14T11:41:02;100591.09;;;-0.69;62.08
49342;BME280;35210;41.606;-87.602;2023-03-14T11:43:33;100601.50;;;-0.72;61.96
49342;BME280;35210;41.606;-87.602;2023-03-14T11:46:13;100600.66;;;-0.74;62.21
49342;BME280;35210;41.606;-87.602;2023-03-14T11:48:48;100616.28;;;-0.75;61.66
49342;BME280;35210;41.606;-87.602;2023-03-14T11:51:22;100612.78;;;-0.74;61.50
49342;BME280;35210;41.606;-87.602;2023-03-14T11:53:59;100612.00;;;-0.78;61.49
49342;BME280;35210;41.606;-87.602;2023-03-14T11:56:34;100624.94;;;-0.76;61.37
49342;BME280;35210;41.606;-87.602;2023-03-14T11:59:09;100612.75;;;-0.73;61.14
49342;BME280;35210;41.606;-87.602;2023-03-14T12:01:52;100624.88;;;-0.73;61.08
49342;BME280;35210;41.606;-87.602;2023-03-14T12:04:44;100627.41;;;-0.69;60.69
49342;BME280;35210;41.606;-87.602;2023-03-14T12:07:20;100629.94;;;-0.62;59.76
49342;BME280;35210;41.606;-87.602;2023-03-14T12:09:51;100630.88;;;-0.70;59.45
49342;BME280;35210;41.606;-87.602;2023-03-14T12:12:23;100624.84;;;-0.72;59.47
49342;BME280;35210;41.606;-87.602;2023-03-14T12:14:54;100635.13;;;-0.64;58.74
49342;BME280;35210;41.606;-87.602;2023-03-14T12:17:27;100640.34;;;-0.66;58.07
49342;BME280;35210;41.606;-87.602;2023-03-14T12:20:04;100637.81;;;-0.72;57.93
49342;BME280;35210;41.606;-87.602;2023-03-14T12:22:42;100647.34;;;-0.72;57.94
49342;BME280;35210;41.606;-87.602;2023-03-14T12:25:15;100646.47;;;-0.73;57.93
49342;BME280;35210;41.606;-87.602;2023-03-14T12:27:47;100651.72;;;-0.76;57.78
49342;BME280;35210;41.606;-87.602;2023-03-14T12:30:27;100648.34;;;-0.81;58.15
49342;BME280;35210;41.606;-87.602;2023-03-14T12:33:22;100653.47;;;-0.78;57.80
49342;BME280;35210;41.606;-87.602;2023-03-14T12:35:59;100654.38;;;-0.80;57.81
49342;BME280;35210;41.606;-87.602;2023-03-14T12:38:46;100656.13;;;-0.82;57.75
49342;BME280;35210;41.606;-87.602;2023-03-14T12:41:23;100663.88;;;-0.81;58.08
49342;BME280;35210;41.606;-87.602;2023-03-14T12:43:53;100656.94;;;-0.79;58.12
49342;BME280;35210;41.606;-87.602;2023-03-14T12:46:23;100665.56;;;-0.77;58.04
49342;BME280;35210;41.606;-87.602;2023-03-14T12:49:04;100670.78;;;-0.80;58.00
49342;BME280;35210;41.606;-87.602;2023-03-14T12:51:36;100672.47;;;-0.76;57.16
49342;BME280;35210;41.606;-87.602;2023-03-14T12:54:33;100665.59;;;-0.80;55.61
49342;BME280;35210;41.606;-87.602;2023-03-14T12:57:25;100674.25;;;-0.81;55.38
49342;BME280;35210;41.606;-87.602;2023-03-14T12:59:56;100673.47;;;-0.87;55.73